Aérodrome :
LOGIN :

S'inscrire | Disclaimer

   EN    FR    IT 

 










Légende :    VFR   VFR Marginal   IFR   IFR Intensif   IFR Très Intensif
Visi : 
Plafond : 
>= 8 km
>= 3000ft
5 à 8 km
1000 à 3000 ft
1500m à 5 km
500 à 1000 ft
800 à 1500m
200 à 500 ft
< 800m
< 200 ft
Symboles :   Orages  Brouillard  Fortes neiges  Fortes précipitations  Vent > 20 kt
SIGMETs :   Divers  Orages  Givrage  Turbulence  Onde Orograph.  Cendres Volcan.







- Altitude de l'aérodrome : 580 ft
- Voir les cartes d'approche


LFOA - Avord

DERNIER METAR :
  • 232130Z AUTO 22010KT 9999 OVC040 10/09 Q1027 TEMPO 1500 BR BKN002

METARs EXPIRÉS :
  • 232100Z AUTO 22010KT 9999 OVC043 10/10 Q1027 TEMPO 2000 DZRA BKN004
  • 232030Z AUTO 22010KT 9999 OVC044 10/10 Q1027 TEMPO 2000 DZRA BKN004
  • 232000Z AUTO 22009KT 9999 BKN046 10/10 Q1027 TEMPO 2000 DZRA BKN004
  • 231930Z AUTO 22009KT 9999 OVC044 10/10 Q1027 TEMPO 2000 DZRA BKN004
  • 231900Z AUTO 21007KT 9999 OVC043 10/10 Q1027 TEMPO 2000 DZRA BKN004

TAF TAF LFOA
Valide du 23 à 21h jusqu'au 24 à 21h UTC


232000Z 2321/2421 20010KT 9999 SCT012 BKN040
TEMPO 2321/2406 2000 DZRA BKN004
PROB40
TEMPO 2323/2406 1500 BR BKN002
BECMG 2408/2410 SCT015
Pas de NOTAMs connus pour ce terrain.



MET'MAP, la Météo Aéronautique d'un coup d'oeil ! - Copyright ORBIFLY Décembre 2007 - Disclaimer

ORBIFLY MET'MAP TEAM :

Programmation & Développement : Alexandra Zaïnal
Conception & Développement : Baudouin d'Aumeries
Co-Programmation & Développement : Marc-Olivier Méhu
Soutien technique & logistique : Manuel Goepfert

Contact : metmap@orbifly.com




SOURCES & CREDITS :

   NOAA